Terminal Aerodrome Forecast
Issued by NWS

Home | Current Version | Previous Version | Text Only | Print | Product List | Glossary On
Versions: 1 2 3 4 5 6 7 8 9 10 11 12 13 14 15
000
FTUS44 KTSA 271720
TAFMLC
TAF
KMLC 271720Z 2718/2818 22005KT P6SM VCTS SCT040CB BKN250
     FM280100 12003KT P6SM BKN120
     FM281500 VRB03KT P6SM SCT100 BKN250=

USA.gov is the U.S. government's official web portal to all federal, state and local government web resources and services.